Time;durP1;ratioP1;P1;durP2;ratioP2;P2;SDS_P1;SDS_P2;PMS_P1;PMS_P2;Temp;Humidity;BMP_temperature;BMP_pressure;BME280_temperature;BME280_humidity;BME280_pressure;Samples;Min_cycle;Max_cycle;Signal;HPM_P1;HPM_P2
2022/01/07 00:00:35;;;;;;;21.10;8.88;;;3.50;99.90;;;;;;5016152;28;20044;-81
2022/01/07 00:03:11;;;;;;;20.17;8.90;;;3.50;99.90;;;;;;4982252;28;20049;-81
2022/01/07 00:05:37;;;;;;;16.35;9.02;;;3.50;99.90;;;;;;5014678;28;20071;-80
2022/01/07 00:08:03;;;;;;;14.00;9.05;;;3.60;99.90;;;;;;4999957;28;20040;-80
2022/01/07 00:10:30;;;;;;;20.25;8.63;;;3.50;99.90;;;;;;4999968;28;20164;-81
2022/01/07 00:12:56;;;;;;;17.52;8.57;;;3.50;99.90;;;;;;5015854;28;20583;-80
2022/01/07 00:15:22;;;;;;;20.90;8.57;;;3.50;99.90;;;;;;5025599;28;20076;-80
2022/01/07 00:17:48;;;;;;;14.60;7.85;;;3.50;99.90;;;;;;4982974;28;20449;-80
2022/01/07 00:20:16;;;;;;;18.90;8.27;;;3.50;99.90;;;;;;4995050;28;20072;-81
2022/01/07 00:22:43;;;;;;;19.17;7.95;;;3.50;99.90;;;;;;5045023;28;20500;-80
2022/01/07 00:25:11;;;;;;;18.25;8.75;;;3.50;99.90;;;;;;5017266;28;20053;-80
2022/01/07 00:27:38;;;;;;;17.65;8.02;;;3.50;99.90;;;;;;5008061;28;20181;-80
2022/01/07 00:30:07;;;;;;;16.80;8.27;;;3.50;99.90;;;;;;4987173;28;20045;-80
2022/01/07 00:32:34;;;;;;;20.15;7.93;;;3.50;99.90;;;;;;5001294;28;20162;-81
2022/01/07 00:35:00;;;;;;;17.50;8.15;;;3.50;99.90;;;;;;5007999;28;20040;-80
2022/01/07 00:37:26;;;;;;;13.05;7.53;;;3.60;99.90;;;;;;4999994;28;20048;-80
2022/01/07 00:39:53;;;;;;;19.80;8.18;;;3.60;99.90;;;;;;5016262;28;20049;-80
2022/01/07 00:42:19;;;;;;;15.73;7.93;;;3.50;99.90;;;;;;5031917;28;20052;-80
2022/01/07 00:44:45;;;;;;;20.63;8.10;;;3.60;99.90;;;;;;5015994;28;20048;-81
2022/01/07 00:47:11;;;;;;;16.75;7.80;;;3.50;99.90;;;;;;4994326;28;20076;-80
2022/01/07 00:49:37;;;;;;;19.33;8.27;;;3.50;99.90;;;;;;5007514;28;20103;-81
2022/01/07 00:52:05;;;;;;;16.98;7.85;;;3.40;99.90;;;;;;5016099;28;20053;-80
2022/01/07 00:54:31;;;;;;;20.35;8.63;;;3.40;99.90;;;;;;5002632;28;20049;-81
2022/01/07 00:56:57;;;;;;;14.20;8.23;;;3.30;99.90;;;;;;5032067;28;20051;-81
2022/01/07 00:59:23;;;;;;;19.25;9.07;;;3.20;99.90;;;;;;4980314;28;20064;-80
2022/01/07 01:01:49;;;;;;;18.63;8.68;;;3.20;99.90;;;;;;5010959;28;20088;-81
2022/01/07 01:04:15;;;;;;;15.93;8.00;;;3.00;99.90;;;;;;4999412;28;20044;-81
2022/01/07 01:06:42;;;;;;;14.48;8.20;;;3.00;99.90;;;;;;4999735;28;20536;-82
2022/01/07 01:09:08;;;;;;;14.85;8.25;;;3.00;99.90;;;;;;4994779;28;20563;-81
2022/01/07 01:11:35;;;;;;;18.33;8.55;;;2.90;99.90;;;;;;4981793;28;20120;-81
2022/01/07 01:14:02;;;;;;;21.55;9.07;;;2.80;99.90;;;;;;5018104;28;20056;-81
2022/01/07 01:16:29;;;;;;;23.52;10.57;;;2.80;99.90;;;;;;4998525;28;20110;-80
2022/01/07 01:18:55;;;;;;;19.02;10.45;;;2.80;99.90;;;;;;5046234;28;20165;-81
2022/01/07 01:21:21;;;;;;;17.17;9.82;;;2.80;99.90;;;;;;5014626;28;20053;-81
2022/01/07 01:23:50;;;;;;;21.17;10.07;;;2.70;99.90;;;;;;4999085;28;20051;-81
2022/01/07 01:26:20;;;;;;;20.35;9.50;;;2.70;99.90;;;;;;4971083;28;20129;-81
2022/01/07 01:28:47;;;;;;;23.42;10.98;;;2.70;99.90;;;;;;4998474;28;20053;-81
2022/01/07 01:31:16;;;;;;;19.58;11.68;;;2.70;99.90;;;;;;5010209;28;20048;-81
2022/01/07 01:33:44;;;;;;;21.23;10.38;;;2.70;99.90;;;;;;4973547;28;20072;-81
2022/01/07 01:36:11;;;;;;;29.35;11.80;;;2.60;99.90;;;;;;5042932;28;20098;-82
2022/01/07 01:38:39;;;;;;;25.45;10.57;;;2.60;99.90;;;;;;4998731;28;20040;-81
2022/01/07 01:41:06;;;;;;;18.67;10.73;;;2.60;99.90;;;;;;5015429;28;20066;-81
2022/01/07 01:43:33;;;;;;;20.45;10.77;;;2.60;99.90;;;;;;5022379;28;20041;-82
2022/01/07 01:45:59;;;;;;;19.25;10.82;;;2.60;99.90;;;;;;5019945;28;20049;-82
2022/01/07 01:48:25;;;;;;;18.75;10.75;;;2.50;99.90;;;;;;5017026;28;20084;-83
2022/01/07 01:50:54;;;;;;;21.85;12.05;;;2.50;99.90;;;;;;5014708;28;20079;-83
2022/01/07 01:53:20;;;;;;;21.35;11.93;;;2.50;99.90;;;;;;5030427;28;20159;-83
2022/01/07 01:55:47;;;;;;;23.20;12.07;;;2.50;99.90;;;;;;5039175;28;20045;-82
2022/01/07 01:58:13;;;;;;;21.98;12.32;;;2.50;99.90;;;;;;5011932;28;20037;-82
2022/01/07 02:00:40;;;;;;;25.45;14.38;;;2.50;99.90;;;;;;4999024;28;20045;-82
2022/01/07 02:03:06;;;;;;;24.40;13.52;;;2.40;99.90;;;;;;4996879;28;20108;-82
2022/01/07 02:05:33;;;;;;;25.33;14.13;;;2.50;99.90;;;;;;4999641;28;20051;-82
2022/01/07 02:07:59;;;;;;;26.08;13.18;;;2.50;99.90;;;;;;4998555;28;20249;-83
2022/01/07 02:10:27;;;;;;;23.98;13.25;;;2.40;99.90;;;;;;4995305;28;20045;-83
2022/01/07 02:12:53;;;;;;;28.65;14.35;;;2.40;99.90;;;;;;5009276;28;20052;-83
2022/01/07 02:15:19;;;;;;;23.85;13.93;;;2.40;99.90;;;;;;4986856;28;20393;-84
2022/01/07 02:17:49;;;;;;;22.92;13.73;;;2.40;99.90;;;;;;4998048;28;20140;-83
2022/01/07 02:20:18;;;;;;;28.08;15.38;;;2.40;99.90;;;;;;5014082;28;20044;-82
2022/01/07 02:22:45;;;;;;;24.73;15.13;;;2.50;99.90;;;;;;5028917;28;20489;-82
2022/01/07 02:25:12;;;;;;;28.38;16.17;;;2.40;99.90;;;;;;5013714;28;20116;-83
2022/01/07 02:27:41;;;;;;;25.85;14.93;;;2.50;99.90;;;;;;5020383;28;20389;-82
2022/01/07 02:30:11;;;;;;;26.15;15.13;;;2.50;99.90;;;;;;5016347;28;20057;-82
2022/01/07 02:32:37;;;;;;;25.08;16.20;;;2.50;99.90;;;;;;5002136;28;20056;-83
2022/01/07 02:35:05;;;;;;;21.40;15.20;;;2.50;99.90;;;;;;4997052;28;20465;-82
2022/01/07 02:37:31;;;;;;;27.80;15.98;;;2.50;99.90;;;;;;5029632;28;20488;-82
2022/01/07 02:39:58;;;;;;;25.45;16.42;;;2.50;99.90;;;;;;4997051;28;20209;-83
2022/01/07 02:42:25;;;;;;;22.55;15.80;;;2.50;99.90;;;;;;5029908;28;20045;-83
2022/01/07 02:44:51;;;;;;;31.00;17.23;;;2.50;99.90;;;;;;5013210;28;20056;-83
2022/01/07 02:47:19;;;;;;;26.02;15.85;;;2.40;99.90;;;;;;4986506;28;20049;-83
2022/01/07 02:49:45;;;;;;;27.05;15.30;;;2.40;99.90;;;;;;5029796;28;20049;-83
2022/01/07 02:52:11;;;;;;;25.55;17.50;;;2.40;99.90;;;;;;4981854;28;20076;-82
2022/01/07 02:54:37;;;;;;;29.42;16.63;;;2.40;99.90;;;;;;5037870;28;20452;-83
2022/01/07 02:57:04;;;;;;;35.17;17.45;;;2.40;99.90;;;;;;4995759;28;20046;-82
2022/01/07 02:59:30;;;;;;;27.13;16.35;;;2.40;99.90;;;;;;4963719;28;20037;-83
2022/01/07 03:01:57;;;;;;;29.70;18.73;;;2.40;99.90;;;;;;5009426;28;20576;-82
2022/01/07 03:04:24;;;;;;;27.33;17.83;;;2.40;99.90;;;;;;4997849;28;20037;-83
2022/01/07 03:06:50;;;;;;;30.30;19.08;;;2.50;99.90;;;;;;5031457;28;20536;-82
2022/01/07 03:09:16;;;;;;;26.05;19.23;;;2.50;99.90;;;;;;5002403;28;20076;-82
2022/01/07 03:11:42;;;;;;;27.85;19.08;;;2.50;99.90;;;;;;5013789;28;20045;-82
2022/01/07 03:14:09;;;;;;;24.20;17.00;;;2.50;99.90;;;;;;4997146;28;20073;-83
2022/01/07 03:16:35;;;;;;;26.65;18.08;;;2.50;99.90;;;;;;5016638;28;20133;-82
2022/01/07 03:19:02;;;;;;;25.75;17.88;;;2.50;99.90;;;;;;4983251;28;20046;-83
2022/01/07 03:21:28;;;;;;;24.58;18.20;;;2.50;99.90;;;;;;5022994;28;20119;-83
2022/01/07 03:23:54;;;;;;;23.10;18.73;;;2.50;99.90;;;;;;4997105;28;20556;-83
2022/01/07 03:26:20;;;;;;;21.25;17.45;;;2.50;99.90;;;;;;5046574;28;20571;-82
2022/01/07 03:28:47;;;;;;;21.70;17.95;;;2.50;99.90;;;;;;4997494;28;20044;-82
2022/01/07 03:31:13;;;;;;;22.60;17.30;;;2.50;99.90;;;;;;4995130;28;20049;-83
2022/01/07 03:33:39;;;;;;;22.55;17.58;;;2.50;99.90;;;;;;5036109;28;20040;-84
2022/01/07 03:36:05;;;;;;;26.77;18.60;;;2.50;99.90;;;;;;5003963;28;20049;-83
2022/01/07 03:38:32;;;;;;;25.27;18.70;;;2.60;99.90;;;;;;4996846;28;20120;-82
2022/01/07 03:40:59;;;;;;;22.80;17.92;;;2.70;99.90;;;;;;5029332;28;20067;-82
2022/01/07 03:43:25;;;;;;;26.33;19.05;;;2.60;99.90;;;;;;5002875;28;20668;-83
2022/01/07 03:45:51;;;;;;;28.02;18.75;;;2.60;99.90;;;;;;5008670;28;20060;-82
2022/01/07 03:48:17;;;;;;;25.65;19.45;;;2.60;99.90;;;;;;5011169;28;20053;-83
2022/01/07 03:50:43;;;;;;;23.80;17.35;;;2.60;99.90;;;;;;5006415;28;20049;-82
2022/01/07 03:53:09;;;;;;;23.15;16.90;;;2.70;99.90;;;;;;5007714;28;20075;-82
2022/01/07 03:55:36;;;;;;;21.05;16.92;;;2.70;99.90;;;;;;5003564;28;20111;-82
2022/01/07 03:58:03;;;;;;;25.30;17.83;;;2.70;99.90;;;;;;4990635;28;20048;-83
2022/01/07 04:00:34;;;;;;;23.05;18.02;;;2.70;99.90;;;;;;5012669;28;20040;-83
2022/01/07 04:03:03;;;;;;;21.40;17.73;;;2.70;99.90;;;;;;5022146;28;20115;-82
2022/01/07 04:05:30;;;;;;;24.20;17.73;;;2.70;99.90;;;;;;4997625;28;20523;-82
2022/01/07 04:07:57;;;;;;;24.52;17.88;;;2.70;99.90;;;;;;4997892;28;20488;-82
2022/01/07 04:10:23;;;;;;;22.02;16.25;;;2.70;99.90;;;;;;4983178;28;20076;-82
2022/01/07 04:12:50;;;;;;;20.73;17.00;;;2.70;99.90;;;;;;5028105;28;20045;-82
2022/01/07 04:15:17;;;;;;;24.33;17.52;;;2.70;99.90;;;;;;5014629;28;20093;-83
2022/01/07 04:17:50;;;;;;;26.48;17.67;;;2.70;99.90;;;;;;5017727;28;20503;-82
2022/01/07 04:20:19;;;;;;;23.67;18.38;;;2.70;99.90;;;;;;5032528;28;20084;-83
2022/01/07 04:22:45;;;;;;;22.00;17.55;;;2.70;99.90;;;;;;5013116;28;20080;-83
2022/01/07 04:25:17;;;;;;;23.70;17.25;;;2.60;99.90;;;;;;5015856;28;20045;-82
2022/01/07 04:27:49;;;;;;;24.85;18.10;;;2.70;99.90;;;;;;4998726;28;20042;-83
2022/01/07 04:30:16;;;;;;;29.83;17.73;;;2.70;99.90;;;;;;5013156;28;20131;-83
2022/01/07 04:32:42;;;;;;;24.40;16.90;;;2.70;99.90;;;;;;5013272;28;20041;-84
2022/01/07 04:35:12;;;;;;;22.83;16.13;;;2.70;99.90;;;;;;5015825;28;20448;-83
2022/01/07 04:37:39;;;;;;;24.13;17.17;;;2.70;99.90;;;;;;5015654;28;20056;-82
2022/01/07 04:40:08;;;;;;;21.23;17.38;;;2.70;99.90;;;;;;4994199;28;20049;-82
2022/01/07 04:42:35;;;;;;;23.65;17.23;;;2.70;99.90;;;;;;5031658;28;20586;-82
2022/01/07 04:45:01;;;;;;;23.52;17.13;;;2.70;99.90;;;;;;5046959;28;20057;-83
2022/01/07 04:47:28;;;;;;;24.40;16.67;;;2.70;99.90;;;;;;5009475;28;20577;-82
2022/01/07 04:49:54;;;;;;;24.50;16.75;;;2.70;99.90;;;;;;5003681;28;20051;-82
2022/01/07 04:52:21;;;;;;;18.85;16.58;;;2.80;99.90;;;;;;4999993;28;20103;-82
2022/01/07 04:54:47;;;;;;;22.40;15.32;;;2.80;99.90;;;;;;4984683;28;20047;-82
2022/01/07 04:57:13;;;;;;;20.25;15.65;;;2.80;99.90;;;;;;4995216;28;20111;-83
2022/01/07 04:59:39;;;;;;;22.88;14.63;;;2.70;99.90;;;;;;4998244;28;20044;-83
2022/01/07 05:02:06;;;;;;;18.13;14.45;;;2.70;99.90;;;;;;4983383;28;20049;-82
2022/01/07 05:04:32;;;;;;;19.42;15.35;;;2.70;99.90;;;;;;4979836;28;20045;-83
2022/01/07 05:06:59;;;;;;;20.08;15.40;;;2.80;99.90;;;;;;5032281;28;20072;-83
2022/01/07 05:09:25;;;;;;;20.42;15.52;;;2.80;99.90;;;;;;5028219;28;20079;-82
2022/01/07 05:11:52;;;;;;;22.33;15.90;;;2.70;99.90;;;;;;5004146;28;20048;-83
2022/01/07 05:14:21;;;;;;;19.77;14.50;;;2.70;99.90;;;;;;5017904;28;20448;-82
2022/01/07 05:16:47;;;;;;;18.92;15.20;;;2.80;99.90;;;;;;5010470;28;20133;-82
2022/01/07 05:19:13;;;;;;;21.80;15.95;;;2.70;99.90;;;;;;4997142;28;20056;-83
2022/01/07 05:21:40;;;;;;;19.15;13.40;;;2.70;99.90;;;;;;5018570;28;20037;-83
2022/01/07 05:24:06;;;;;;;19.33;14.98;;;2.70;99.90;;;;;;5015041;28;20052;-82
2022/01/07 05:26:33;;;;;;;18.27;13.70;;;2.70;99.90;;;;;;4999659;28;20049;-82
2022/01/07 05:28:59;;;;;;;17.70;14.15;;;2.80;99.90;;;;;;4999864;28;20052;-82
2022/01/07 05:31:25;;;;;;;18.58;14.32;;;2.70;99.90;;;;;;5019649;28;20509;-81
2022/01/07 05:33:53;;;;;;;19.27;14.07;;;2.80;99.90;;;;;;5015670;28;20564;-82
2022/01/07 05:36:20;;;;;;;16.58;13.13;;;2.70;99.90;;;;;;4964446;28;20133;-82
2022/01/07 05:38:46;;;;;;;17.92;14.45;;;2.80;99.90;;;;;;5045568;28;20033;-82
2022/01/07 05:41:14;;;;;;;17.77;13.50;;;2.80;99.90;;;;;;4997602;28;20049;-81
2022/01/07 05:43:40;;;;;;;20.05;14.63;;;2.80;99.90;;;;;;5025523;28;20048;-82
2022/01/07 05:46:12;;;;;;;15.80;14.10;;;2.80;99.90;;;;;;5007459;28;20119;-82
2022/01/07 05:48:39;;;;;;;23.30;13.88;;;2.80;99.90;;;;;;5030716;28;20493;-81
2022/01/07 05:51:05;;;;;;;16.23;14.23;;;2.80;99.90;;;;;;5013199;28;20140;-82
2022/01/07 05:53:31;;;;;;;16.65;13.57;;;2.80;99.90;;;;;;5045360;28;20464;-81
2022/01/07 05:55:57;;;;;;;17.15;14.00;;;2.90;99.90;;;;;;4996112;28;20528;-81
2022/01/07 05:58:24;;;;;;;15.23;13.70;;;2.90;99.90;;;;;;4986848;28;20041;-82
2022/01/07 06:00:50;;;;;;;15.60;12.82;;;2.90;99.90;;;;;;4988325;28;20128;-81
2022/01/07 06:03:16;;;;;;;16.98;13.95;;;2.90;99.90;;;;;;5047151;28;20131;-82
2022/01/07 06:05:42;;;;;;;18.27;13.38;;;2.90;99.90;;;;;;5012889;28;20524;-82
2022/01/07 06:08:09;;;;;;;17.23;13.10;;;2.90;99.90;;;;;;4998673;28;20064;-81
2022/01/07 06:10:35;;;;;;;15.35;12.80;;;2.90;99.90;;;;;;5000170;28;20484;-82
2022/01/07 06:13:02;;;;;;;16.20;13.57;;;2.90;99.90;;;;;;5014529;28;20615;-81
2022/01/07 06:15:28;;;;;;;16.60;12.13;;;2.90;99.90;;;;;;5038665;28;20111;-82
2022/01/07 06:17:54;;;;;;;14.20;11.98;;;2.90;99.90;;;;;;5014744;28;20053;-81
2022/01/07 06:20:21;;;;;;;13.95;12.20;;;3.00;99.90;;;;;;5014516;28;20037;-80
2022/01/07 06:22:48;;;;;;;16.35;11.70;;;3.00;99.90;;;;;;4982363;28;20092;-81
2022/01/07 06:25:14;;;;;;;14.57;12.50;;;3.00;99.90;;;;;;4998649;28;20073;-80
2022/01/07 06:27:40;;;;;;;15.90;12.32;;;3.10;99.90;;;;;;5013687;28;20141;-82
2022/01/07 06:30:07;;;;;;;15.23;12.73;;;3.10;99.90;;;;;;5009393;28;20049;-81
2022/01/07 06:32:34;;;;;;;13.10;11.70;;;3.10;99.90;;;;;;4997558;28;20531;-81
2022/01/07 06:35:00;;;;;;;18.95;13.02;;;3.10;99.90;;;;;;5014923;28;20100;-83
2022/01/07 06:37:26;;;;;;;14.80;12.50;;;3.10;99.90;;;;;;4997936;28;20048;-82
2022/01/07 06:39:53;;;;;;;12.98;11.77;;;3.10;99.90;;;;;;5014467;28;20408;-83
2022/01/07 06:42:19;;;;;;;13.73;11.90;;;3.10;99.90;;;;;;4998449;28;20489;-83
2022/01/07 06:44:45;;;;;;;14.57;11.15;;;3.10;99.90;;;;;;5046890;28;20095;-82
2022/01/07 06:47:11;;;;;;;18.02;13.65;;;3.20;99.90;;;;;;5030112;28;20052;-82
2022/01/07 06:49:37;;;;;;;14.90;12.80;;;3.10;99.90;;;;;;5004676;28;20099;-83
2022/01/07 06:52:04;;;;;;;15.15;12.38;;;3.10;99.90;;;;;;5012781;28;20040;-82
2022/01/07 06:54:31;;;;;;;13.50;12.20;;;3.20;99.90;;;;;;5025335;28;20041;-82
2022/01/07 06:56:58;;;;;;;14.65;12.70;;;3.20;99.90;;;;;;4994505;28;20045;-82
2022/01/07 06:59:24;;;;;;;15.27;13.50;;;3.20;99.90;;;;;;4994694;28;20108;-81
2022/01/07 07:01:51;;;;;;;13.55;11.73;;;3.20;99.90;;;;;;5027927;28;20107;-82
2022/01/07 07:04:17;;;;;;;16.58;14.25;;;3.20;99.90;;;;;;5005599;28;20081;-83
2022/01/07 07:06:44;;;;;;;16.73;13.90;;;3.10;99.90;;;;;;5000199;28;20057;-84
2022/01/07 07:09:11;;;;;;;15.35;13.77;;;3.10;99.90;;;;;;5031002;28;20178;-84
2022/01/07 07:11:37;;;;;;;17.55;14.55;;;3.10;99.90;;;;;;5050538;28;20045;-83
2022/01/07 07:14:03;;;;;;;18.60;15.88;;;3.10;99.90;;;;;;5032976;28;20045;-84
2022/01/07 07:16:29;;;;;;;17.30;15.20;;;3.20;99.90;;;;;;4998526;28;20505;-83
2022/01/07 07:18:56;;;;;;;18.33;16.35;;;3.20;99.90;;;;;;5013667;28;20416;-83
2022/01/07 07:21:22;;;;;;;18.52;16.10;;;3.20;99.90;;;;;;4998699;28;20052;-84
2022/01/07 07:23:48;;;;;;;19.67;17.13;;;3.20;99.90;;;;;;5013192;28;20084;-83
2022/01/07 07:26:14;;;;;;;18.60;16.60;;;3.20;99.90;;;;;;4985570;28;20139;-82
2022/01/07 07:28:40;;;;;;;20.85;18.27;;;3.30;99.90;;;;;;4985466;28;20045;-83
2022/01/07 07:31:11;;;;;;;20.70;18.50;;;3.20;99.90;;;;;;4993203;28;20045;-84
2022/01/07 07:36:29;;;;;;;21.73;19.52;;;3.30;99.90;;;;;;5031105;28;20041;-83
2022/01/07 07:38:55;;;;;;;;;;;3.30;99.90;;;;;;4997600;28;20383;-84
2022/01/07 07:41:21;;;;;;;23.65;19.48;;;3.30;99.90;;;;;;5011585;28;19920;-84
2022/01/07 07:43:49;;;;;;;24.85;21.27;;;3.40;99.90;;;;;;4983482;28;20041;-85
2022/01/07 07:46:20;;;;;;;22.50;19.65;;;3.30;99.90;;;;;;5013664;28;20041;-83
2022/01/07 07:48:47;;;;;;;30.05;21.42;;;3.40;99.90;;;;;;4998757;28;20052;-85
2022/01/07 07:51:14;;;;;;;26.00;21.58;;;3.40;99.90;;;;;;5026979;28;20115;-84
2022/01/07 07:53:41;;;;;;;29.63;22.17;;;3.40;99.90;;;;;;5030293;28;20104;-83
2022/01/07 07:56:10;;;;;;;25.75;22.42;;;3.40;99.90;;;;;;5002688;28;20050;-83
2022/01/07 07:58:36;;;;;;;28.48;21.85;;;3.40;99.90;;;;;;5037667;28;20048;-83
2022/01/07 08:01:03;;;;;;;25.80;23.08;;;3.50;99.90;;;;;;5014986;28;20072;-84
2022/01/07 08:03:29;;;;;;;27.08;23.33;;;3.50;99.90;;;;;;4999916;28;20103;-81
2022/01/07 08:05:55;;;;;;;29.35;23.17;;;3.50;99.90;;;;;;5032877;28;20044;-81
2022/01/07 08:08:21;;;;;;;30.58;24.45;;;3.60;99.90;;;;;;5014603;28;20045;-80
2022/01/07 08:10:54;;;;;;;25.38;22.67;;;3.60;99.90;;;;;;4984167;28;20048;-80
2022/01/07 08:13:30;;;;;;;35.00;23.60;;;3.60;99.90;;;;;;4997702;28;20052;-82
2022/01/07 08:16:06;;;;;;;31.85;25.00;;;3.60;99.90;;;;;;5020841;28;20051;-82
2022/01/07 08:18:37;;;;;;;28.15;24.02;;;3.70;99.90;;;;;;5024778;28;20044;-86
2022/01/07 08:21:09;;;;;;;31.85;24.48;;;3.70;99.90;;;;;;5001091;28;20064;-81
2022/01/07 08:23:36;;;;;;;;;;;3.70;99.90;;;;;;5026922;28;20059;-81
2022/01/07 08:26:04;;;;;;;28.17;25.17;;;3.70;99.90;;;;;;5034983;28;20700;-82
2022/01/07 08:28:37;;;;;;;33.50;25.92;;;3.80;99.90;;;;;;5014742;28;20064;-81
2022/01/07 08:36:25;;;;;;;46.15;35.65;;;3.90;99.90;;;;;;5016163;28;20064;-81
2022/01/07 08:38:52;;;;;;;32.53;27.98;;;4.00;99.90;;;;;;4998450;28;20124;-84
2022/01/07 08:41:20;;;;;;;35.05;29.35;;;4.00;99.90;;;;;;5031851;28;20056;-86
2022/01/07 08:43:46;;;;;;;38.10;29.15;;;4.10;99.90;;;;;;4997934;28;20056;-82
2022/01/07 08:46:13;;;;;;;41.53;28.75;;;4.10;99.90;;;;;;5015122;28;20198;-83
2022/01/07 08:48:39;;;;;;;34.83;28.98;;;4.10;99.90;;;;;;4999975;28;20431;-85
2022/01/07 08:51:07;;;;;;;33.75;29.70;;;4.20;99.90;;;;;;5017569;28;20075;-81
2022/01/07 08:53:34;;;;;;;35.25;29.70;;;4.20;99.90;;;;;;5015420;28;20037;-82
2022/01/07 08:56:00;;;;;;;36.00;29.40;;;4.30;99.90;;;;;;5001964;28;20045;-82
2022/01/07 08:58:27;;;;;;;46.30;28.48;;;4.30;99.90;;;;;;5016090;28;20497;-80
2022/01/07 09:00:53;;;;;;;36.75;28.25;;;4.40;99.90;;;;;;4998989;28;20041;-81
2022/01/07 09:03:20;;;;;;;42.13;28.38;;;4.40;99.90;;;;;;5015432;28;20053;-82
2022/01/07 09:05:46;;;;;;;36.40;29.42;;;4.50;99.90;;;;;;5006497;28;20041;-82
2022/01/07 09:08:12;;;;;;;42.13;27.98;;;4.60;99.90;;;;;;4974458;28;20060;-81
2022/01/07 09:10:40;;;;;;;36.25;28.98;;;4.50;99.90;;;;;;5005387;28;20045;-80
2022/01/07 09:13:07;;;;;;;41.35;29.55;;;4.60;99.90;;;;;;5026251;28;20107;-84
2022/01/07 09:15:33;;;;;;;34.58;28.95;;;4.60;99.90;;;;;;5014137;28;20037;-83
2022/01/07 09:18:01;;;;;;;34.72;28.30;;;4.60;99.90;;;;;;4996281;28;20076;-81
2022/01/07 09:20:28;;;;;;;36.85;28.63;;;4.60;99.90;;;;;;5009652;28;20056;-86
2022/01/07 09:22:54;;;;;;;50.72;38.15;;;4.70;99.90;;;;;;5000076;28;20131;-81
2022/01/07 09:25:20;;;;;;;36.55;28.40;;;4.70;99.90;;;;;;5022615;28;20689;-82
2022/01/07 09:27:46;;;;;;;30.10;26.90;;;4.70;99.90;;;;;;5009435;28;20049;-87
2022/01/07 09:30:13;;;;;;;35.80;28.33;;;4.70;99.90;;;;;;4982777;28;20048;-84
2022/01/07 09:32:39;;;;;;;36.83;28.52;;;4.70;99.90;;;;;;5021583;28;20151;-81
2022/01/07 09:35:06;;;;;;;39.72;29.10;;;4.70;99.90;;;;;;4983854;28;20046;-82
2022/01/07 09:37:33;;;;;;;32.28;27.48;;;4.80;99.90;;;;;;5030925;28;20568;-84
2022/01/07 09:40:02;;;;;;;37.67;27.15;;;4.80;99.90;;;;;;4986298;28;20048;-82
2022/01/07 09:42:28;;;;;;;33.88;28.10;;;4.80;99.90;;;;;;5012186;28;20044;-82
2022/01/07 09:44:56;;;;;;;38.70;26.67;;;4.90;99.90;;;;;;5003042;28;20088;-83
2022/01/07 09:47:26;;;;;;;38.60;28.83;;;4.90;99.90;;;;;;4993516;28;20057;-83
2022/01/07 09:49:52;;;;;;;39.17;27.60;;;4.90;99.90;;;;;;5014322;28;20081;-85
2022/01/07 09:52:18;;;;;;;36.83;28.10;;;4.90;99.90;;;;;;5012987;28;20048;-89
2022/01/07 09:54:46;;;;;;;30.63;26.20;;;4.90;99.90;;;;;;5016600;28;20449;-82
2022/01/07 09:57:12;;;;;;;41.45;34.42;;;4.90;99.90;;;;;;5025479;28;20039;-83
2022/01/07 09:59:38;;;;;;;37.00;27.75;;;5.00;99.90;;;;;;5024663;28;20037;-82
2022/01/07 10:02:09;;;;;;;45.17;34.85;;;4.90;99.90;;;;;;5020717;28;20116;-80
2022/01/07 10:04:41;;;;;;;36.53;30.10;;;4.90;99.90;;;;;;5045522;28;20045;-82
2022/01/07 10:07:20;;;;;;;37.38;29.73;;;4.90;99.90;;;;;;4996880;28;20052;-82
2022/01/07 10:10:06;;;;;;;28.98;24.42;;;4.90;99.90;;;;;;5016497;28;20068;-84
2022/01/07 10:12:50;;;;;;;26.65;19.60;;;4.80;99.90;;;;;;5015503;28;20056;-82
2022/01/07 10:15:20;;;;;;;16.38;13.70;;;4.80;99.90;;;;;;5048656;28;20092;-83
2022/01/07 10:18:05;;;;;;;22.15;15.85;;;4.70;99.90;;;;;;5014232;28;20067;-83
2022/01/07 10:20:40;;;;;;;16.42;13.45;;;4.70;99.90;;;;;;5027523;28;20543;-85
2022/01/07 10:23:15;;;;;;;18.23;13.45;;;4.60;99.90;;;;;;5005722;28;20067;-85
2022/01/07 10:25:44;;;;;;;16.80;14.05;;;4.60;99.90;;;;;;5021302;28;20049;-81
2022/01/07 10:28:15;;;;;;;18.17;13.55;;;4.50;99.90;;;;;;5005972;28;20044;-84
2022/01/07 10:30:50;;;;;;;24.35;17.83;;;4.50;99.90;;;;;;5041334;28;20048;-83
2022/01/07 10:33:23;;;;;;;31.23;24.60;;;4.50;99.90;;;;;;5031623;28;20049;-81
2022/01/07 10:35:56;;;;;;;36.85;26.15;;;4.60;99.90;;;;;;4997405;28;20053;-83
2022/01/07 10:38:25;;;;;;;32.95;24.83;;;4.70;99.90;;;;;;4998825;28;20049;-82
2022/01/07 10:40:54;;;;;;;31.48;24.45;;;4.70;99.90;;;;;;5016397;28;20045;-80
2022/01/07 10:43:22;;;;;;;31.30;21.80;;;4.70;99.90;;;;;;5019965;28;20103;-84
2022/01/07 10:45:57;;;;;;;21.77;16.42;;;4.70;99.90;;;;;;5021505;28;20145;-83
2022/01/07 10:48:47;;;;;;;12.57;8.63;;;4.70;99.90;;;;;;5025415;28;20041;-82
2022/01/07 10:51:18;;;;;;;12.50;4.93;;;4.50;99.90;;;;;;5006237;28;20131;-81
2022/01/07 10:53:56;;;;;;;13.55;6.50;;;4.50;99.90;;;;;;5020514;28;20048;-82
2022/01/07 10:56:50;;;;;;;10.73;5.70;;;4.50;99.90;;;;;;5006770;28;20041;-83
2022/01/07 10:59:18;;;;;;;10.05;6.95;;;4.60;99.90;;;;;;5039551;28;20047;-82
2022/01/07 11:01:45;;;;;;;15.90;7.88;;;4.60;99.90;;;;;;5029026;28;20040;-81
2022/01/07 11:04:17;;;;;;;14.43;8.50;;;4.60;99.90;;;;;;5028837;28;20051;-82
2022/01/07 11:06:44;;;;;;;18.10;11.82;;;4.60;99.90;;;;;;5045058;28;20068;-84
2022/01/07 11:09:12;;;;;;;16.80;14.63;;;4.80;99.90;;;;;;5016857;28;20483;-80
2022/01/07 11:11:48;;;;;;;21.08;14.65;;;4.90;99.90;;;;;;5017423;28;20037;-82
2022/01/07 11:14:28;;;;;;;20.63;16.65;;;4.90;99.90;;;;;;5038790;28;20532;-81
2022/01/07 11:16:58;;;;;;;22.00;16.13;;;4.90;99.90;;;;;;5024216;28;20037;-81
2022/01/07 11:19:52;;;;;;;27.60;18.00;;;5.00;99.90;;;;;;5014580;28;20048;-80
2022/01/07 11:22:21;;;;;;;25.70;18.00;;;5.20;99.90;;;;;;5017424;28;20044;-81
2022/01/07 11:24:50;;;;;;;23.35;17.80;;;5.20;99.90;;;;;;5030785;28;20057;-81
2022/01/07 11:27:20;;;;;;;28.75;19.17;;;5.30;99.90;;;;;;5024898;28;20055;-80
2022/01/07 11:30:05;;;;;;;24.63;18.20;;;5.30;99.90;;;;;;5033134;28;20072;-82
2022/01/07 11:32:39;;;;;;;22.13;18.80;;;5.20;99.90;;;;;;5025482;28;20049;-83
2022/01/07 11:35:18;;;;;;;27.73;18.25;;;5.20;99.90;;;;;;5056314;28;20083;-81
2022/01/07 11:37:53;;;;;;;30.55;19.33;;;5.10;99.90;;;;;;5011030;28;20127;-82
2022/01/07 11:40:28;;;;;;;26.15;20.00;;;5.00;99.90;;;;;;5033484;28;20037;-81
2022/01/07 11:42:57;;;;;;;31.95;21.10;;;5.00;99.90;;;;;;5025757;28;20049;-80
2022/01/07 11:45:29;;;;;;;28.00;21.55;;;4.90;99.90;;;;;;5014298;28;20044;-80
2022/01/07 11:47:57;;;;;;;27.67;20.50;;;4.90;99.90;;;;;;5021528;28;20045;-80
2022/01/07 11:50:24;;;;;;;25.60;19.20;;;4.90;99.90;;;;;;5028190;28;20048;-79
2022/01/07 11:53:02;;;;;;;24.20;19.55;;;4.80;99.90;;;;;;5026633;28;20045;-81
2022/01/07 11:55:36;;;;;;;22.23;16.65;;;4.90;99.90;;;;;;5010911;28;20048;-82
2022/01/07 11:58:11;;;;;;;21.80;16.13;;;5.00;99.90;;;;;;5009425;28;20046;-82
2022/01/07 12:00:56;;;;;;;17.17;11.77;;;5.00;99.90;;;;;;5028209;28;20140;-81
2022/01/07 12:03:46;;;;;;;12.63;8.90;;;5.00;99.90;;;;;;5015636;28;20080;-82
2022/01/07 12:06:23;;;;;;;10.18;5.28;;;5.00;99.90;;;;;;5033485;28;20056;-83
2022/01/07 12:09:16;;;;;;;7.40;3.15;;;5.00;99.90;;;;;;5031111;28;20060;-82
2022/01/07 12:12:02;;;;;;;7.65;2.88;;;5.00;99.90;;;;;;5044718;28;20397;-82
2022/01/07 12:14:36;;;;;;;7.30;3.47;;;5.00;99.90;;;;;;5010769;28;20048;-82
2022/01/07 12:17:04;;;;;;;6.57;2.58;;;5.00;99.90;;;;;;5027483;28;20718;-82
2022/01/07 12:19:36;;;;;;;6.53;2.42;;;5.10;99.90;;;;;;5013790;28;20068;-82
2022/01/07 12:22:10;;;;;;;7.28;2.38;;;5.20;99.90;;;;;;4996149;28;20052;-82
2022/01/07 12:24:37;;;;;;;6.00;1.88;;;5.10;99.90;;;;;;4980871;28;20041;-82
2022/01/07 12:27:18;;;;;;;5.70;2.13;;;4.90;99.90;;;;;;5013029;28;20048;-82
2022/01/07 12:29:45;;;;;;;7.70;1.83;;;4.80;99.90;;;;;;5013612;28;20048;-82
2022/01/07 12:32:13;;;;;;;6.07;1.70;;;4.70;99.90;;;;;;5031420;28;20037;-83
2022/01/07 12:34:45;;;;;;;6.47;1.60;;;4.60;99.90;;;;;;5015365;28;20041;-82
2022/01/07 12:37:23;;;;;;;9.75;1.48;;;4.60;99.90;;;;;;5003464;28;20079;-83
2022/01/07 12:39:51;;;;;;;6.10;1.52;;;4.60;99.90;;;;;;5010296;28;20141;-82
2022/01/07 12:42:18;;;;;;;6.25;1.50;;;4.70;99.90;;;;;;5031816;28;20057;-82
2022/01/07 12:44:54;;;;;;;10.60;1.90;;;5.20;99.90;;;;;;4972440;28;20128;-82
2022/01/07 12:47:23;;;;;;;6.30;1.90;;;5.40;99.90;;;;;;5022762;28;20040;-82
2022/01/07 12:49:53;;;;;;;6.95;1.73;;;5.60;99.90;;;;;;5019221;28;20087;-82
2022/01/07 12:52:26;;;;;;;7.85;1.52;;;5.40;99.90;;;;;;5029588;28;20112;-81
2022/01/07 12:54:52;;;;;;;10.15;1.65;;;5.20;99.90;;;;;;4998738;28;20397;-82